Time;durP1;ratioP1;P1;durP2;ratioP2;P2;SDS_P1;SDS_P2;PMS_P1;PMS_P2;Temp;Humidity;BMP_temperature;BMP_pressure;BME280_temperature;BME280_humidity;BME280_pressure;Samples;Min_cycle;Max_cycle;Signal;HPM_P1;HPM_P2
2022/08/17 00:02:00;;;;;;;17.63;10.82;;;;;;;;;;5016813;28;20044;-74
2022/08/17 00:04:26;;;;;;;14.35;11.60;;;;;;;;;;5015231;28;20065;-74
2022/08/17 00:06:52;;;;;;;11.50;10.43;;;;;;;;;;5016271;28;20061;-74
2022/08/17 00:09:19;;;;;;;13.88;12.38;;;;;;;;;;5016670;28;20072;-74
2022/08/17 00:11:46;;;;;;;14.30;12.90;;;;;;;;;;5016776;28;20041;-74
2022/08/17 00:14:14;;;;;;;15.60;12.70;;;;;;;;;;5016322;28;20070;-74
2022/08/17 00:16:45;;;;;;;15.02;11.30;;;;;;;;;;5016290;28;20046;-74
2022/08/17 00:19:13;;;;;;;16.88;10.80;;;;;;;;;;5016031;28;20033;-74
2022/08/17 00:21:40;;;;;;;12.13;10.57;;;;;;;;;;5016356;28;20046;-74
2022/08/17 00:24:06;;;;;;;14.65;9.65;;;;;;;;;;5016402;28;20038;-74
2022/08/17 00:26:33;;;;;;;12.15;9.85;;;;;;;;;;5016370;28;20061;-74
2022/08/17 00:28:59;;;;;;;11.88;9.07;;;;;;;;;;5015932;28;20034;-74
2022/08/17 00:31:26;;;;;;;9.98;9.07;;;;;;;;;;5016045;28;20053;-74
2022/08/17 00:33:53;;;;;;;10.45;9.07;;;;;;;;;;5016331;28;20500;-74
2022/08/17 00:36:19;;;;;;;13.30;9.65;;;;;;;;;;5016248;28;20512;-74
2022/08/17 00:38:45;;;;;;;12.10;9.20;;;;;;;;;;5016087;28;20038;-74
2022/08/17 00:41:16;;;;;;;10.68;9.40;;;;;;;;;;5016351;28;20493;-74
2022/08/17 00:43:56;;;;;;;11.50;9.68;;;;;;;;;;5016027;28;20068;-74
2022/08/17 00:46:25;;;;;;;10.70;9.70;;;;;;;;;;5016127;28;20050;-74
2022/08/17 00:48:51;;;;;;;13.90;10.75;;;;;;;;;;5015590;28;20485;-74
2022/08/17 00:51:35;;;;;;;14.35;11.35;;;;;;;;;;5015424;28;20038;-74
2022/08/17 00:54:11;;;;;;;12.10;10.90;;;;;;;;;;5016374;28;20042;-74
2022/08/17 00:56:42;;;;;;;13.77;11.20;;;;;;;;;;5015918;28;20120;-74
2022/08/17 00:59:09;;;;;;;12.82;11.45;;;;;;;;;;5015553;28;20061;-74
2022/08/17 01:01:36;;;;;;;13.15;10.15;;;;;;;;;;5015210;28;20129;-74
2022/08/17 01:04:04;;;;;;;12.35;9.90;;;;;;;;;;5015916;28;20037;-74
2022/08/17 01:06:31;;;;;;;12.88;9.82;;;;;;;;;;5015211;28;20057;-74
2022/08/17 01:08:58;;;;;;;11.40;10.25;;;24.00;99.90;;;;;;5015833;28;20048;-74
2022/08/17 01:11:25;;;;;;;12.52;11.07;;;23.80;99.90;;;;;;5015518;28;20096;-74
2022/08/17 01:13:51;;;;;;;11.80;10.25;;;24.20;99.90;;;;;;5015745;28;20121;-74
2022/08/17 01:16:26;;;;;;;12.82;10.50;;;24.20;99.90;;;;;;5015436;28;20136;-74
2022/08/17 01:18:59;;;;;;;15.25;12.02;;;24.20;99.90;;;;;;5015572;28;20049;-74
2022/08/17 01:21:51;;;;;;;15.85;11.90;;;24.20;99.90;;;;;;5015200;28;20189;-74
2022/08/17 01:24:17;;;;;;;12.43;11.02;;;24.20;99.90;;;;;;5015215;28;20046;-74
2022/08/17 01:26:44;;;;;;;18.35;11.60;;;24.20;99.90;;;;;;5014866;28;20532;-74
2022/08/17 01:29:11;;;;;;;12.82;11.50;;;24.10;99.90;;;;;;5014937;28;20100;-74
2022/08/17 01:31:44;;;;;;;15.52;12.15;;;24.00;99.90;;;;;;5015292;28;20034;-74
2022/08/17 01:34:12;;;;;;;19.02;12.90;;;24.00;99.90;;;;;;5015521;28;20042;-74
2022/08/17 01:36:41;;;;;;;16.30;12.05;;;24.00;99.90;;;;;;5015111;28;20505;-74
2022/08/17 01:39:11;;;;;;;14.90;12.20;;;;;;;;;;5015105;28;20045;-74
2022/08/17 01:41:39;;;;;;;13.48;11.63;;;;;;;;;;5015327;28;20045;-74
2022/08/17 01:44:06;;;;;;;12.82;10.73;;;;;;;;;;5015051;28;20128;-74
2022/08/17 01:46:34;;;;;;;10.93;10.00;;;;;;;;;;5014842;28;20096;-74
2022/08/17 01:49:00;;;;;;;11.77;10.65;;;;;;;;;;5014913;28;20070;-74
2022/08/17 01:51:31;;;;;;;13.63;11.35;;;;;;;;;;5014584;28;20384;-74
2022/08/17 01:53:59;;;;;;;13.50;11.63;;;;;;;;;;5014701;28;20050;-74
2022/08/17 01:56:26;;;;;;;18.00;12.38;;;;;;;;;;5014493;28;20501;-74
2022/08/17 01:58:52;;;;;;;17.30;12.85;;;;;;;;;;5014587;28;20050;-74
2022/08/17 02:01:20;;;;;;;20.85;14.68;;;;;;;;;;5014824;28;20046;-74
2022/08/17 02:03:46;;;;;;;16.05;13.52;;;;;;;;;;5014835;28;20041;-74
2022/08/17 02:06:13;;;;;;;17.33;14.00;;;;;;;;;;5014681;28;20049;-74
2022/08/17 02:08:39;;;;;;;15.60;13.52;;;;;;;;;;5014750;28;20045;-74
2022/08/17 02:11:07;;;;;;;18.75;12.35;;;;;;;;;;5014185;28;20496;-74
2022/08/17 02:13:33;;;;;;;16.73;12.50;;;;;;;;;;5013478;28;20048;-74
2022/08/17 02:16:00;;;;;;;13.70;12.13;;;;;;;;;;5013170;28;20523;-74
2022/08/17 02:18:27;;;;;;;12.45;11.25;;;;;;;;;;5014478;28;20068;-74
2022/08/17 02:20:53;;;;;;;15.73;12.00;;;;;;;;;;5014436;28;20048;-74
2022/08/17 02:23:22;;;;;;;14.38;12.65;;;;;;;;;;5013787;28;20042;-74
2022/08/17 02:25:48;;;;;;;18.65;12.57;;;;;;;;;;5014245;28;20123;-74
2022/08/17 02:28:15;;;;;;;14.75;12.32;;;;;;;;;;5014265;28;20068;-74
2022/08/17 02:30:41;;;;;;;19.60;12.85;;;;;;;;;;5014683;28;20038;-74
2022/08/17 02:33:07;;;;;;;19.50;14.02;;;;;;;;;;5014500;28;20061;-74
2022/08/17 02:35:34;;;;;;;17.40;13.82;;;;;;;;;;5013955;28;20050;-74
2022/08/17 02:38:00;;;;;;;19.45;13.63;;;;;;;;;;5014414;28;20038;-73
2022/08/17 02:40:27;;;;;;;19.40;13.95;;;;;;;;;;5014133;28;20104;-74
2022/08/17 02:42:53;;;;;;;18.38;14.77;;;;;;;;;;5014689;28;20042;-74
2022/08/17 02:45:21;;;;;;;16.83;13.43;;;;;;;;;;5014168;28;20050;-74
2022/08/17 02:47:49;;;;;;;20.70;13.82;;;;;;;;;;5014060;28;20125;-74
2022/08/17 02:50:16;;;;;;;19.25;13.68;;;;;;;;;;5014153;28;20119;-74
2022/08/17 02:52:43;;;;;;;19.08;14.70;;;;;;;;;;5014328;28;20094;-73
2022/08/17 02:55:14;;;;;;;20.25;16.25;;;;;;;;;;5014542;28;20041;-73
2022/08/17 02:57:40;;;;;;;21.05;14.30;;;;;;;;;;5015092;28;20049;-74
2022/08/17 03:00:09;;;;;;;21.65;15.77;;;;;;;;;;5013936;28;20042;-74
2022/08/17 03:02:40;;;;;;;19.48;15.00;;;;;;;;;;5014496;28;20041;-73
2022/08/17 03:05:07;;;;;;;23.23;14.65;;;;;;;;;;5014107;28;20045;-74
2022/08/17 03:07:34;;;;;;;16.35;14.40;;;;;;;;;;5012407;28;20107;-74
2022/08/17 03:10:00;;;;;;;19.25;14.20;;;;;;;;;;5014172;28;20526;-74
2022/08/17 03:12:31;;;;;;;17.13;14.65;;;;;;;;;;5013747;28;20122;-74
2022/08/17 03:14:57;;;;;;;18.80;14.80;;;;;;;;;;5014239;28;20081;-73
2022/08/17 03:17:23;;;;;;;25.33;16.92;;;;;;;;;;5012797;28;20469;-74
2022/08/17 03:19:49;;;;;;;20.10;16.45;;;;;;;;;;5014091;28;20045;-74
2022/08/17 03:22:15;;;;;;;23.45;16.92;;;;;;;;;;5015095;28;20521;-74
2022/08/17 03:24:42;;;;;;;23.10;16.33;;;;;;;;;;5017541;28;20494;-74
2022/08/17 03:27:08;;;;;;;21.08;18.67;;;;;;;;;;5017484;28;20038;-73
2022/08/17 03:29:34;;;;;;;24.13;16.52;;;;;;;;;;5017473;28;20512;-73
2022/08/17 03:32:00;;;;;;;20.00;15.98;;;;;;;;;;5017095;28;20030;-74
2022/08/17 03:34:27;;;;;;;24.13;16.80;;;;;;;;;;5017311;28;20044;-73
2022/08/17 03:36:53;;;;;;;22.60;18.38;;;;;;;;;;5016927;28;20176;-73
2022/08/17 03:39:19;;;;;;;23.10;17.90;;;;;;;;;;5016976;28;20049;-73
2022/08/17 03:41:45;;;;;;;26.08;17.27;;;;;;;;;;5017414;28;20496;-74
2022/08/17 03:44:11;;;;;;;25.98;19.13;;;;;;;;;;5016919;28;20073;-73
2022/08/17 03:57:36;;;;;;;24.10;19.30;;;;;;;;;;5016768;28;20562;-74
2022/08/17 04:00:03;;;;;;;26.65;20.65;;;;;;;;;;5015587;28;20042;-74
2022/08/17 04:02:33;;;;;;;24.50;20.10;;;;;;;;;;5016880;28;20132;-74
2022/08/17 04:04:59;;;;;;;27.25;20.63;;;;;;;;;;5016625;28;20045;-74
2022/08/17 04:07:27;;;;;;;29.60;19.70;;;;;;;;;;5017033;28;20053;-74
2022/08/17 04:09:53;;;;;;;25.50;19.05;;;;;;;;;;5017546;28;20042;-73
2022/08/17 04:12:20;;;;;;;22.27;19.00;;;;;;;;;;5016637;28;20052;-74
2022/08/17 04:14:46;;;;;;;22.10;18.02;;;;;;;;;;5016816;28;20038;-74
2022/08/17 04:17:12;;;;;;;21.35;17.90;;;;;;;;;;5016562;28;20116;-74
2022/08/17 04:19:38;;;;;;;24.40;18.98;;;;;;;;;;5015503;28;20048;-74
2022/08/17 04:22:05;;;;;;;23.10;19.30;;;;;;;;;;5016313;28;20460;-73
2022/08/17 04:24:31;;;;;;;22.55;19.00;;;;;;;;;;5016723;28;20038;-74
2022/08/17 04:26:58;;;;;;;22.65;17.98;;;;;;;;;;5016763;28;20046;-74
2022/08/17 04:29:27;;;;;;;22.38;18.75;;;;;;;;;;5016896;28;20112;-73
2022/08/17 04:31:53;;;;;;;23.90;19.55;;;;;;;;;;5016202;28;20095;-74
2022/08/17 04:34:20;;;;;;;25.27;19.55;;;;;;;;;;5015847;28;20042;-73
2022/08/17 04:36:46;;;;;;;25.08;18.33;;;;;;;;;;5016362;28;20052;-73
2022/08/17 04:39:12;;;;;;;23.73;19.10;;;;;;;;;;5016403;28;20038;-73
2022/08/17 04:44:23;;;;;;;24.17;16.98;;;;;;;;;;5016389;28;20040;-74
2022/08/17 04:46:49;;;;;;;23.73;18.50;;;;;;;;;;5016151;28;20413;-74
2022/08/17 04:49:16;;;;;;;23.23;18.75;;;;;;;;;;5016533;28;20034;-73
2022/08/17 04:51:43;;;;;;;19.60;17.52;;;;;;;;;;5015955;28;20044;-73
2022/08/17 04:54:11;;;;;;;22.40;18.58;;;;;;;;;;5014864;28;20042;-74
2022/08/17 04:56:38;;;;;;;19.13;16.60;;;;;;;;;;5016274;28;20128;-74
2022/08/17 04:59:06;;;;;;;18.95;16.30;;;;;;;;;;5015831;28;20052;-74
2022/08/17 05:01:33;;;;;;;19.83;17.83;;;;;;;;;;5015953;28;20495;-73
2022/08/17 05:04:02;;;;;;;24.33;18.40;;;;;;;;;;5016037;28;20073;-74
2022/08/17 05:06:28;;;;;;;20.10;17.63;;;;;;;;;;5015875;28;20053;-74
2022/08/17 05:08:55;;;;;;;17.27;15.52;;;;;;;;;;5015601;28;20065;-73
2022/08/17 05:11:21;;;;;;;22.08;16.92;;;;;;;;;;5015532;28;20048;-74
2022/08/17 05:13:48;;;;;;;19.25;17.35;;;;;;;;;;5015242;28;20124;-73
2022/08/17 05:16:15;;;;;;;18.65;16.30;;;;;;;;;;5015502;28;20103;-73
2022/08/17 05:18:42;;;;;;;23.05;17.00;;;;;;;;;;5015697;28;20515;-74
2022/08/17 05:21:08;;;;;;;24.60;16.67;;;;;;;;;;5015255;28;20053;-74
2022/08/17 05:23:35;;;;;;;18.70;16.80;;;;;;;;;;5015350;28;20033;-74
2022/08/17 05:26:01;;;;;;;21.98;16.83;;;;;;;;;;5015214;28;20050;-74
2022/08/17 05:28:28;;;;;;;22.88;18.30;;;;;;;;;;5015352;28;20036;-74
2022/08/17 05:30:56;;;;;;;23.65;18.60;;;;;;;;;;5024801;28;20492;-74
2022/08/17 05:33:23;;;;;;;20.52;18.20;;;;;;;;;;5031555;28;20041;-74
2022/08/17 05:35:50;;;;;;;17.95;15.32;;;;;;;;;;5033736;28;20071;-74
2022/08/17 05:38:17;;;;;;;16.92;15.25;;;;;;;;;;5031358;28;20069;-74
2022/08/17 05:40:44;;;;;;;17.45;14.55;;;;;;;;;;5031345;28;20052;-74
2022/08/17 05:43:12;;;;;;;16.88;15.18;;;;;;;;;;5034780;28;20041;-74
2022/08/17 05:45:45;;;;;;;19.90;14.75;;;;;;;;;;5014785;28;20045;-73
2022/08/17 05:48:12;;;;;;;14.35;13.00;;;;;;;;;;5013217;28;20049;-74
2022/08/17 05:50:41;;;;;;;14.43;12.98;;;;;;;;;;5028148;28;20152;-73
2022/08/17 05:53:16;;;;;;;16.38;13.15;;;;;;;;;;5025172;28;20124;-74
2022/08/17 05:55:57;;;;;;;14.05;12.68;;;;;;;;;;5024684;28;20053;-75
2022/08/17 05:58:26;;;;;;;15.30;13.75;;;;;;;;;;5024773;28;20515;-74
2022/08/17 06:00:52;;;;;;;14.48;12.98;;;;;;;;;;5026050;28;20041;-74
2022/08/17 06:03:37;;;;;;;15.10;12.98;;;;;;;;;;5014847;28;20068;-73
2022/08/17 06:06:03;;;;;;;15.80;12.75;;;;;;;;;;5032956;28;20053;-74
2022/08/17 06:08:41;;;;;;;13.38;12.00;;;;;;;;;;5033650;28;20072;-72
2022/08/17 06:11:14;;;;;;;12.77;11.38;;;;;;;;;;5025971;28;20052;-75
2022/08/17 06:13:46;;;;;;;16.30;12.73;;;;;;;;;;5024150;28;20491;-75
2022/08/17 06:16:14;;;;;;;14.80;11.45;;;;;;;;;;5034519;28;20397;-75
2022/08/17 06:18:55;;;;;;;12.82;11.15;;;;;;;;;;5033142;28;20504;-75
2022/08/17 06:21:22;;;;;;;13.82;10.68;;;;;;;;;;5033576;28;20045;-75
2022/08/17 06:23:51;;;;;;;16.70;10.77;;;;;;;;;;5033105;28;20049;-76
2022/08/17 06:26:19;;;;;;;11.13;9.98;;;;;;;;;;5033123;28;20060;-76
2022/08/17 06:29:09;;;;;;;10.65;9.32;;;;;;;;;;5034079;28;20042;-76
2022/08/17 06:31:37;;;;;;;15.05;10.20;;;;;;;;;;5029837;28;20052;-76
2022/08/17 06:34:05;;;;;;;11.73;9.13;;;;;;;;;;5006584;28;20041;-76
2022/08/17 06:36:32;;;;;;;17.10;10.30;;;;;;;;;;5026380;28;20050;-76
2022/08/17 06:39:18;;;;;;;12.20;10.13;;;;;;;;;;5025185;28;20046;-76
2022/08/17 06:42:00;;;;;;;10.77;9.10;;;;;;;;;;5014195;28;20483;-76
2022/08/17 06:44:33;;;;;;;9.60;8.40;;;;;;;;;;5030957;28;20101;-74
2022/08/17 06:47:07;;;;;;;11.40;8.23;;;;;;;;;;5028087;28;20045;-76
2022/08/17 06:49:39;;;;;;;10.00;8.85;;;;;;;;;;5033760;28;20048;-76
2022/08/17 06:52:05;;;;;;;12.60;9.25;;;;;;;;;;5034054;28;20068;-76
2022/08/17 06:54:34;;;;;;;10.60;8.57;;;;;;;;;;5034335;28;20571;-76
2022/08/17 06:57:19;;;;;;;10.07;8.20;;;;;;;;;;5036280;28;20053;-78
2022/08/17 07:00:02;;;;;;;9.43;8.50;;;;;;;;;;5036241;28;20041;-74
2022/08/17 07:02:37;;;;;;;11.18;8.57;;;;;;;;;;5032854;28;20078;-74
2022/08/17 07:05:04;;;;;;;9.48;7.95;;;;;;;;;;5037413;28;20496;-73
2022/08/17 07:10:17;;;;;;;8.70;7.78;;;;;;;;;;5017021;28;20086;-73
2022/08/17 07:12:44;;;;;;;9.98;8.13;;;;;;;;;;5023292;28;20046;-73
2022/08/17 07:15:13;;;;;;;13.77;9.68;;;;;;;;;;5016366;28;20520;-73
2022/08/17 07:17:40;;;;;;;14.02;8.70;;;;;;;;;;5023656;28;20122;-73
2022/08/17 07:20:08;;;;;;;11.40;8.55;;;;;;;;;;5034192;28;20037;-73
2022/08/17 07:22:40;;;;;;;11.65;8.35;;;;;;;;;;5026393;28;20046;-73
2022/08/17 07:25:07;;;;;;;10.00;8.25;;;;;;;;;;5016287;28;20052;-74
2022/08/17 07:27:36;;;;;;;9.55;8.75;;;;;;;;;;5018093;28;20048;-72
2022/08/17 07:30:09;;;;;;;10.48;8.82;;;;;;;;;;5037468;28;20498;-76
2022/08/17 07:32:45;;;;;;;8.90;8.02;;;;;;;;;;5036854;28;20073;-71
2022/08/17 07:35:11;;;;;;;9.32;8.38;;;;;;;;;;5033862;28;20563;-76
2022/08/17 07:37:39;;;;;;;9.85;8.90;;;;;;;;;;5033004;28;20045;-76
2022/08/17 07:40:34;;;;;;;8.88;8.13;;;;;;;;;;5029268;28;20037;-79
2022/08/17 07:43:06;;;;;;;11.45;9.18;;;;;;;;;;5015861;28;20044;-75
2022/08/17 07:48:20;;;;;;;10.18;9.18;;;;;;;;;;5036370;28;20167;-76
2022/08/17 07:50:47;;;;;;;11.52;9.18;;;;;;;;;;5033755;28;20049;-77
2022/08/17 07:53:21;;;;;;;10.88;9.38;;;;;;;;;;5035989;28;20063;-74
2022/08/17 07:55:49;;;;;;;24.05;9.23;;;;;;;;;;5036761;28;20517;-75
2022/08/17 07:58:19;;;;;;;9.88;8.65;;;;;;;;;;5037048;28;20056;-75
2022/08/17 08:00:46;;;;;;;10.15;9.07;;;;;;;;;;5035961;28;20048;-75
2022/08/17 08:03:15;;;;;;;10.73;9.45;;;;;;;;;;5036080;28;20072;-75
2022/08/17 08:05:55;;;;;;;10.32;8.40;;;;;;;;;;5036615;28;20055;-75
2022/08/17 08:08:24;;;;;;;10.07;9.07;;;;;;;;;;5036219;28;20087;-75
2022/08/17 08:11:17;;;;;;;9.80;8.80;;;;;;;;;;5035394;28;20041;-75
2022/08/17 08:13:44;;;;;;;9.45;8.35;;;;;;;;;;5033569;28;20507;-74
2022/08/17 08:16:16;;;;;;;10.63;8.68;;;;;;;;;;5035667;28;20079;-75
2022/08/17 08:18:44;;;;;;;9.27;8.35;;;;;;;;;;5016620;28;20127;-75
2022/08/17 08:21:29;;;;;;;8.98;8.07;;;;;;;;;;5016356;28;20041;-76
2022/08/17 08:24:11;;;;;;;13.52;8.60;;;;;;;;;;5017094;28;20041;-78
2022/08/17 08:26:43;;;;;;;8.63;7.82;;;;;;;;;;5026909;28;20045;-78
2022/08/17 08:29:19;;;;;;;9.18;7.80;;;;;;;;;;5024309;28;20042;-77
2022/08/17 08:31:55;;;;;;;11.52;7.88;;;;;;;;;;5034020;28;20041;-77
2022/08/17 08:34:37;;;;;;;8.88;7.97;;;;;;;;;;5017965;28;20044;-78
2022/08/17 08:37:26;;;;;;;9.02;8.23;;;;;;;;;;5035551;28;20041;-78
2022/08/17 08:40:09;;;;;;;8.73;7.93;;;;;;;;;;5036215;28;20055;-78
2022/08/17 08:42:42;;;;;;;9.80;7.90;;;;;;;;;;5035796;28;20049;-78
2022/08/17 08:45:11;;;;;;;11.32;8.60;;;;;;;;;;5036198;28;20048;-78
2022/08/17 08:47:43;;;;;;;8.90;7.82;;;;;;;;;;5035247;28;20037;-79
2022/08/17 08:50:26;;;;;;;11.82;8.15;;;;;;;;;;5035543;28;20380;-78
2022/08/17 08:52:56;;;;;;;8.77;7.88;;;;;;;;;;5035929;28;20038;-78
2022/08/17 08:55:44;;;;;;;9.55;8.10;;;;;;;;;;5034437;28;20053;-78
2022/08/17 09:01:02;;;;;;;9.25;8.00;;;;;;;;;;5035551;28;20045;-78
2022/08/17 09:03:52;;;;;;;8.40;7.65;;;;;;;;;;5035542;28;20041;-70
2022/08/17 09:06:25;;;;;;;8.05;7.40;;;;;;;;;;5022582;28;20065;-70
2022/08/17 09:09:14;;;;;;;8.85;7.50;;;;;;;;;;5035215;28;20042;-70
2022/08/17 09:11:43;;;;;;;8.45;7.22;;;;;;;;;;4989332;28;20056;-70
2022/08/17 09:14:16;;;;;;;7.75;7.00;;;;;;;;;;5034882;28;20038;-70
2022/08/17 09:16:45;;;;;;;9.65;8.07;;;;;;;;;;5034838;28;20128;-71
2022/08/17 09:19:14;;;;;;;8.10;7.30;;;;;;;;;;5026102;28;20571;-70
2022/08/17 09:21:44;;;;;;;21.05;8.90;;;;;;;;;;5035061;28;20041;-69
2022/08/17 09:24:23;;;;;;;9.30;7.90;;;;;;;;;;5034450;28;20387;-70
2022/08/17 09:26:55;;;;;;;8.60;7.70;;;;;;;;;;5035173;28;20049;-70
2022/08/17 09:29:24;;;;;;;8.75;7.95;;;;;;;;;;5034636;28;20037;-70
2022/08/17 09:31:57;;;;;;;8.38;7.63;;;;;;;;;;5034663;28;20045;-70
2022/08/17 09:34:46;;;;;;;7.80;7.03;;;;;;;;;;5034378;28;20037;-70
2022/08/17 09:37:18;;;;;;;8.57;6.90;;;;;;;;;;5034076;28;20081;-69
2022/08/17 09:39:50;;;;;;;7.45;6.75;;;;;;;;;;5034845;28;20042;-70
2022/08/17 09:42:23;;;;;;;7.50;6.05;;;;;;;;;;5034114;28;20091;-70
2022/08/17 09:44:52;;;;;;;7.55;6.32;;;;;;;;;;5034594;28;20037;-70
2022/08/17 09:47:24;;;;;;;7.22;6.60;;;;;;;;;;5034483;28;20049;-71
2022/08/17 09:49:54;;;;;;;7.03;6.43;;;;;;;;;;5034953;28;20038;-71
2022/08/17 09:52:22;;;;;;;8.20;6.45;;;;;;;;;;5034099;28;20167;-70
2022/08/17 09:54:50;;;;;;;7.13;6.28;;;;;;;;;;5034222;28;20052;-70
2022/08/17 09:57:25;;;;;;;10.10;7.88;;;;;;;;;;5034469;28;20049;-70
2022/08/17 10:00:17;;;;;;;10.45;7.13;;;;;;;;;;5034333;28;20044;-70
2022/08/17 10:02:50;;;;;;;7.50;6.90;;;;;;;;;;5033671;28;20499;-71
2022/08/17 10:05:39;;;;;;;7.10;6.50;;;;;;;;;;5033866;28;20037;-70
2022/08/17 10:08:15;;;;;;;7.97;6.75;;;;;;;;;;5033237;28;20080;-70
2022/08/17 10:10:57;;;;;;;10.20;6.47;;;;;;;;;;5025565;28;20045;-70
2022/08/17 10:13:35;;;;;;;9.90;6.40;;;;;;;;;;5031579;28;20049;-70
2022/08/17 10:16:06;;;;;;;11.05;6.82;;;;;;;;;;5034227;28;20046;-70
2022/08/17 10:18:34;;;;;;;8.23;6.95;;;;;;;;;;5034214;28;20104;-71
2022/08/17 10:26:36;;;;;;;8.10;7.30;;;;;;;;;;5033963;28;20083;-69
2022/08/17 10:29:11;;;;;;;9.00;7.78;;;;;;;;;;5034289;28;20057;-68
2022/08/17 10:31:44;;;;;;;8.20;7.40;;;;;;;;;;5036695;28;20033;-69
2022/08/17 10:34:17;;;;;;;9.52;8.52;;;;;;;;;;5039113;28;20033;-69
2022/08/17 10:36:53;;;;;;;9.93;8.20;;;;;;;;;;5029970;28;20041;-69
2022/08/17 10:39:25;;;;;;;10.68;8.18;;;;;;;;;;5037637;28;20499;-69
2022/08/17 10:41:54;;;;;;;12.93;8.65;;;;;;;;;;5038138;28;20038;-69
2022/08/17 10:44:41;;;;;;;10.25;8.77;;;;;;;;;;5038080;28;20092;-69
2022/08/17 10:47:17;;;;;;;9.75;8.77;;;;;;;;;;5037402;28;20453;-69
2022/08/17 10:49:55;;;;;;;9.70;8.60;;;;;;;;;;5037465;28;20063;-69
2022/08/17 10:52:29;;;;;;;10.45;8.98;;;;;;;;;;5038035;28;20442;-69
2022/08/17 10:54:56;;;;;;;9.50;8.48;;;;;;;;;;5037440;28;20041;-69
2022/08/17 10:57:30;;;;;;;11.50;8.60;;;;;;;;;;5036280;28;20052;-69
2022/08/17 10:59:57;;;;;;;10.82;8.45;;;;;;;;;;5037846;28;20068;-69
2022/08/17 11:02:24;;;;;;;18.90;9.93;;;;;;;;;;5020348;28;20539;-69
2022/08/17 11:04:55;;;;;;;13.30;10.70;;;;;;;;;;5037468;28;20037;-69
2022/08/17 11:07:32;;;;;;;19.23;11.88;;;;;;;;;;5037010;28;20049;-69
2022/08/17 11:10:14;;;;;;;12.57;10.18;;;;;;;;;;5036718;28;20507;-68
2022/08/17 11:13:00;;;;;;;12.90;11.07;;;;;;;;;;5037573;28;20037;-68
2022/08/17 11:15:46;;;;;;;12.52;10.95;;;;;;;;;;5037171;28;20528;-69
2022/08/17 11:18:24;;;;;;;14.52;10.32;;;;;;;;;;5019373;28;20124;-68
2022/08/17 11:20:59;;;;;;;14.65;10.80;;;;;;;;;;5036779;28;20041;-68
2022/08/17 11:23:44;;;;;;;14.88;10.68;;;;;;;;;;5036630;28;20091;-68
2022/08/17 11:26:24;;;;;;;14.68;11.35;;;;;;;;;;5033753;28;20041;-68
2022/08/17 11:28:53;;;;;;;18.30;12.25;;;;;;;;;;5026567;28;20044;-68
2022/08/17 11:31:28;;;;;;;15.38;12.40;;;;;;;;;;5016687;28;20042;-68
2022/08/17 11:34:01;;;;;;;16.88;12.77;;;;;;;;;;5016092;28;20045;-68
2022/08/17 11:36:31;;;;;;;14.30;12.80;;;;;;;;;;5023396;28;20080;-67
2022/08/17 11:39:06;;;;;;;14.77;12.05;;;;;;;;;;5018007;28;20464;-68
2022/08/17 11:41:35;;;;;;;13.57;12.10;;;;;;;;;;5035610;28;20035;-67
2022/08/17 11:44:09;;;;;;;16.17;10.68;;;;;;;;;;5034717;28;20045;-67
2022/08/17 11:52:13;;;;;;;11.93;10.02;;;;;;;;;;5035875;28;20282;-68
2022/08/17 11:54:44;;;;;;;11.70;10.60;;;;;;;;;;5035363;28;20496;-68
2022/08/17 11:57:26;;;;;;;12.32;11.07;;;;;;;;;;5017509;28;20454;-68
2022/08/17 11:59:53;;;;;;;11.18;9.90;;;;;;;;;;5035555;28;20535;-68
2022/08/17 12:02:20;;;;;;;12.15;10.57;;;;;;;;;;5036039;28;20045;-68
2022/08/17 12:05:04;;;;;;;11.57;10.32;;;;;;;;;;5034640;28;20400;-68
2022/08/17 12:07:32;;;;;;;10.43;9.32;;;;;;;;;;5034873;28;20136;-68
2022/08/17 12:10:02;;;;;;;12.95;10.43;;;;;;;;;;5035438;28;20033;-68
2022/08/17 12:12:34;;;;;;;13.85;9.80;;;;;;;;;;5035025;28;20034;-69
2022/08/17 12:15:01;;;;;;;10.68;9.65;;;;;;;;;;5035825;28;20124;-68
2022/08/17 12:17:29;;;;;;;14.32;9.60;;;;;;;;;;5032831;28;20495;-71
2022/08/17 12:20:07;;;;;;;12.38;9.60;;;;;;;;;;5034936;28;20111;-68
2022/08/17 12:23:03;;;;;;;10.30;9.20;;;;;;;;;;5030599;28;20057;-68
2022/08/17 12:25:34;;;;;;;10.82;9.85;;;;;;;;;;5023872;28;20041;-68
2022/08/17 12:28:01;;;;;;;14.85;8.73;;;;;;;;;;5034213;28;20416;-68
2022/08/17 12:30:27;;;;;;;9.85;8.60;;;;;;;;;;5035797;28;20495;-68
2022/08/17 12:32:53;;;;;;;9.98;8.32;;;;;;;;;;5035398;28;20037;-68
2022/08/17 12:35:22;;;;;;;10.95;8.68;;;;;;;;;;5019437;28;20107;-68
2022/08/17 12:37:49;;;;;;;9.63;8.80;;;;;;;;;;5016382;28;20060;-68
2022/08/17 12:40:25;;;;;;;9.48;8.00;;;;;;;;;;5017701;28;20049;-68
2022/08/17 12:42:57;;;;;;;9.32;8.38;;;;;;;;;;5034765;28;20045;-68
2022/08/17 12:45:26;;;;;;;10.70;7.68;;;;;;;;;;5034926;28;20045;-68
2022/08/17 12:48:05;;;;;;;9.23;7.65;;;;;;;;;;5035514;28;20041;-68
2022/08/17 12:50:31;;;;;;;12.43;8.30;;;;;;;;;;5035172;28;20044;-68
2022/08/17 12:52:57;;;;;;;9.48;8.25;;;;;;;;;;5034606;28;20107;-69
2022/08/17 12:55:25;;;;;;;10.65;8.52;;;;;;;;;;5031033;28;20045;-69
2022/08/17 12:57:53;;;;;;;8.85;7.93;;;;;;;;;;5034248;28;20072;-68
2022/08/17 13:00:31;;;;;;;9.13;8.23;;;;;;;;;;5033022;28;20124;-68
2022/08/17 13:03:00;;;;;;;8.98;7.97;;;;;;;;;;5032120;28;20043;-69
2022/08/17 13:05:33;;;;;;;10.23;7.90;;;;;;;;;;5032258;28;20515;-69
2022/08/17 13:08:00;;;;;;;11.98;9.57;;;;;;;;;;5034370;28;20055;-69
2022/08/17 13:10:32;;;;;;;10.13;9.07;;;;;;;;;;5034287;28;20119;-69
2022/08/17 13:13:03;;;;;;;11.77;8.43;;;;;;;;;;5034344;28;20041;-69
2022/08/17 13:15:32;;;;;;;10.35;8.32;;;;;;;;;;5034215;28;20053;-69
2022/08/17 13:18:04;;;;;;;11.27;8.65;;;;;;;;;;5033487;28;20092;-70
2022/08/17 13:20:30;;;;;;;12.75;9.80;;;;;;;;;;5033887;28;20041;-70
2022/08/17 13:22:58;;;;;;;10.23;9.15;;;;;;;;;;5021293;28;20120;-73
2022/08/17 13:25:25;;;;;;;12.65;9.20;;;;;;;;;;5033107;28;20132;-71
2022/08/17 13:27:52;;;;;;;10.57;9.48;;;;;;;;;;5033785;28;20045;-76
2022/08/17 13:30:23;;;;;;;11.60;9.00;;;;;;;;;;5034006;28;20063;-72
2022/08/17 13:32:52;;;;;;;11.38;8.98;;;;;;;;;;5035045;28;20069;-72
2022/08/17 13:35:45;;;;;;;9.85;8.75;;;;;;;;;;5032955;28;20043;-72
2022/08/17 13:38:46;;;;;;;9.25;8.27;;;;;;;;;;5030691;28;20124;-72
2022/08/17 13:41:14;;;;;;;;;;;;;;;;;;4982457;28;20045;-72
2022/08/17 13:43:44;;;;;;;10.27;9.23;;;;;;;;;;5034853;28;19916;-72
2022/08/17 13:46:21;;;;;;;10.23;8.73;;;;;;;;;;5035146;28;20049;-72
2022/08/17 13:48:56;;;;;;;10.43;8.10;;;;;;;;;;5035081;28;20052;-72
2022/08/17 13:51:25;;;;;;;12.50;8.90;;;;;;;;;;5034795;28;20045;-72
2022/08/17 13:53:53;;;;;;;9.00;8.13;;;;;;;;;;5034669;28;20045;-72
2022/08/17 13:56:25;;;;;;;9.60;8.63;;;;;;;;;;5034621;28;20095;-72
2022/08/17 13:58:56;;;;;;;9.95;8.63;;;;;;;;;;5034601;28;20049;-72
2022/08/17 14:01:29;;;;;;;9.45;8.55;;;;;;;;;;5034591;28;20041;-72
2022/08/17 14:03:55;;;;;;;9.35;8.20;;;;;;;;;;5034320;28;20067;-72
2022/08/17 14:06:23;;;;;;;9.90;8.35;;;;;;;;;;5033447;28;20140;-72
2022/08/17 14:08:50;;;;;;;9.43;8.50;;;;;;;;;;5034513;28;20052;-72
2022/08/17 14:11:17;;;;;;;10.40;9.35;;;;;;;;;;5034443;28;20519;-72
2022/08/17 14:13:44;;;;;;;11.20;10.10;;;;;;;;;;5034466;28;20068;-72
2022/08/17 14:16:10;;;;;;;10.32;8.95;;;;;;;;;;5034776;28;20115;-72
2022/08/17 14:18:36;;;;;;;10.77;9.68;;;;;;;;;;5035178;28;20048;-72
2022/08/17 14:21:03;;;;;;;9.90;8.63;;;;;;;;;;5034244;28;20488;-72
2022/08/17 14:23:31;;;;;;;10.13;9.18;;;;;;;;;;5034048;28;20041;-72
2022/08/17 14:25:57;;;;;;;10.88;9.27;;;;;;;;;;5034258;28;20057;-72
2022/08/17 14:28:23;;;;;;;11.85;9.05;;;;;;;;;;5034038;28;20042;-72
2022/08/17 14:30:49;;;;;;;10.73;9.48;;;;;;;;;;5034301;28;20055;-71
2022/08/17 14:33:23;;;;;;;10.48;9.50;;;;;;;;;;5033999;28;20038;-72
2022/08/17 14:35:51;;;;;;;10.23;9.25;;;;;;;;;;5034164;28;20053;-72
2022/08/17 14:38:17;;;;;;;10.95;9.95;;;;;;;;;;5034798;28;20044;-72
2022/08/17 14:40:44;;;;;;;11.10;9.68;;;;;;;;;;5034416;28;20041;-71
2022/08/17 14:43:10;;;;;;;10.70;9.57;;;;;;;;;;5034207;28;20037;-72
2022/08/17 14:45:36;;;;;;;11.52;10.32;;;;;;;;;;5016709;28;20381;-72
2022/08/17 14:48:06;;;;;;;13.40;10.73;;;;;;;;;;5034133;28;20042;-71
2022/08/17 14:50:33;;;;;;;11.07;9.98;;;;;;;;;;5034140;28;20046;-72
2022/08/17 14:52:59;;;;;;;11.18;9.30;;;;;;;;;;5034395;28;20041;-72
2022/08/17 14:55:26;;;;;;;12.07;9.23;;;;;;;;;;5034519;28;20056;-72
2022/08/17 14:57:52;;;;;;;10.18;9.10;;;;;;;;;;5033793;28;20526;-72
2022/08/17 15:00:18;;;;;;;8.98;8.07;;;;;;;;;;5034023;28;20132;-72
2022/08/17 15:02:52;;;;;;;7.93;7.22;;;;;;;;;;5033746;28;20044;-72
2022/08/17 15:05:19;;;;;;;7.90;7.20;;;;;;;;;;5033992;28;20127;-72
2022/08/17 15:07:45;;;;;;;8.45;7.38;;;;;;;;;;5034077;28;20048;-71
2022/08/17 15:10:12;;;;;;;8.13;7.32;;;;;;;;;;5034467;28;20048;-71
2022/08/17 15:12:39;;;;;;;7.60;6.78;;;;;;;;;;5033939;28;20045;-72
2022/08/17 15:15:06;;;;;;;11.10;7.57;;;;;;;;;;5034269;28;20124;-71
2022/08/17 15:17:37;;;;;;;7.43;6.70;;;;;;;;;;5035825;28;20076;-72